sensor_id;sensor_type;location;lat;lon;timestamp;pressure;altitude;pressure_sealevel;temperature;humidity
1832;BME280;1680;48.106;11.708;2023-07-24T00:00:47;94979.19;;;20.22;76.25
1832;BME280;1680;48.106;11.708;2023-07-24T00:03:15;94973.31;;;20.06;77.22
1832;BME280;1680;48.106;11.708;2023-07-24T00:05:42;94973.13;;;20.16;76.88
1832;BME280;1680;48.106;11.708;2023-07-24T00:08:09;94973.75;;;20.13;76.66
1832;BME280;1680;48.106;11.708;2023-07-24T00:10:36;94958.16;;;20.20;76.24
1832;BME280;1680;48.106;11.708;2023-07-24T00:13:05;94956.75;;;20.23;75.90
1832;BME280;1680;48.106;11.708;2023-07-24T00:15:32;94949.88;;;20.08;77.04
1832;BME280;1680;48.106;11.708;2023-07-24T00:17:59;94955.94;;;19.95;77.97
1832;BME280;1680;48.106;11.708;2023-07-24T00:20:26;94930.28;;;19.86;77.95
1832;BME280;1680;48.106;11.708;2023-07-24T00:22:53;94934.41;;;19.78;78.05
1832;BME280;1680;48.106;11.708;2023-07-24T00:25:20;94950.69;;;19.90;78.23
1832;BME280;1680;48.106;11.708;2023-07-24T00:27:48;94945.69;;;19.89;78.23
1832;BME280;1680;48.106;11.708;2023-07-24T00:30:17;94935.41;;;19.96;78.14
1832;BME280;1680;48.106;11.708;2023-07-24T00:32:44;94933.47;;;20.01;78.10
1832;BME280;1680;48.106;11.708;2023-07-24T00:35:11;94926.78;;;20.04;77.27
1832;BME280;1680;48.106;11.708;2023-07-24T00:37:39;94928.06;;;20.06;77.88
1832;BME280;1680;48.106;11.708;2023-07-24T00:40:07;94870.13;;;19.71;77.54
1832;BME280;1680;48.106;11.708;2023-07-24T00:42:34;94921.16;;;20.05;77.83
1832;BME280;1680;48.106;11.708;2023-07-24T00:45:01;94896.97;;;19.88;77.68
1832;BME280;1680;48.106;11.708;2023-07-24T00:47:30;94914.44;;;19.94;78.31
1832;BME280;1680;48.106;11.708;2023-07-24T00:49:57;94913.25;;;20.00;78.04
1832;BME280;1680;48.106;11.708;2023-07-24T00:52:25;94845.31;;;19.62;77.30
1832;BME280;1680;48.106;11.708;2023-07-24T00:54:53;94904.56;;;19.95;78.07
1832;BME280;1680;48.106;11.708;2023-07-24T00:57:21;94899.47;;;19.98;77.91
1832;BME280;1680;48.106;11.708;2023-07-24T00:59:48;94867.19;;;19.86;77.34
1832;BME280;1680;48.106;11.708;2023-07-24T01:02:15;94856.75;;;19.76;77.34
1832;BME280;1680;48.106;11.708;2023-07-24T01:04:44;94909.94;;;20.08;77.44
1832;BME280;1680;48.106;11.708;2023-07-24T01:07:11;94902.69;;;19.95;78.13
1832;BME280;1680;48.106;11.708;2023-07-24T01:09:39;94887.91;;;19.89;77.76
1832;BME280;1680;48.106;11.708;2023-07-24T01:12:10;94851.03;;;19.69;78.06
1832;BME280;1680;48.106;11.708;2023-07-24T01:14:51;94898.16;;;19.82;78.55
1832;BME280;1680;48.106;11.708;2023-07-24T01:17:22;94902.09;;;19.85;78.99
1832;BME280;1680;48.106;11.708;2023-07-24T01:19:54;94895.78;;;19.94;78.06
1832;BME280;1680;48.106;11.708;2023-07-24T01:22:25;94884.84;;;19.82;79.17
1832;BME280;1680;48.106;11.708;2023-07-24T01:25:07;94876.06;;;19.68;79.07
1832;BME280;1680;48.106;11.708;2023-07-24T01:27:42;94861.16;;;19.54;79.46
1832;BME280;1680;48.106;11.708;2023-07-24T01:30:10;94881.97;;;19.65;79.56
1832;BME280;1680;48.106;11.708;2023-07-24T01:32:37;94875.66;;;19.61;80.11
1832;BME280;1680;48.106;11.708;2023-07-24T01:35:05;94873.31;;;19.60;80.88
1832;BME280;1680;48.106;11.708;2023-07-24T01:37:34;94869.34;;;19.57;81.44
1832;BME280;1680;48.106;11.708;2023-07-24T01:40:03;94831.38;;;19.25;81.45
1832;BME280;1680;48.106;11.708;2023-07-24T01:42:31;94856.53;;;19.59;81.17
1832;BME280;1680;48.106;11.708;2023-07-24T01:44:59;94867.28;;;19.54;81.55
1832;BME280;1680;48.106;11.708;2023-07-24T01:47:27;94862.34;;;19.61;81.29
1832;BME280;1680;48.106;11.708;2023-07-24T01:49:55;94839.38;;;19.39;82.62
1832;BME280;1680;48.106;11.708;2023-07-24T01:52:22;94860.38;;;19.53;81.81
1832;BME280;1680;48.106;11.708;2023-07-24T01:54:49;94850.00;;;19.39;83.24
1832;BME280;1680;48.106;11.708;2023-07-24T01:57:16;94850.75;;;19.26;83.70
1832;BME280;1680;48.106;11.708;2023-07-24T01:59:43;94857.06;;;19.30;83.76
1832;BME280;1680;48.106;11.708;2023-07-24T02:02:12;94861.88;;;19.28;83.90
1832;BME280;1680;48.106;11.708;2023-07-24T02:04:39;94855.88;;;19.22;84.23
1832;BME280;1680;48.106;11.708;2023-07-24T02:07:06;94861.19;;;19.22;84.48
1832;BME280;1680;48.106;11.708;2023-07-24T02:09:33;94847.50;;;19.15;84.43
1832;BME280;1680;48.106;11.708;2023-07-24T02:12:00;94856.69;;;19.23;84.25
1832;BME280;1680;48.106;11.708;2023-07-24T02:14:28;94824.56;;;18.87;84.86
1832;BME280;1680;48.106;11.708;2023-07-24T02:16:55;94856.28;;;19.29;83.82
1832;BME280;1680;48.106;11.708;2023-07-24T02:19:23;94865.47;;;19.37;83.23
1832;BME280;1680;48.106;11.708;2023-07-24T02:21:50;94867.31;;;19.36;83.45
1832;BME280;1680;48.106;11.708;2023-07-24T02:24:18;94866.31;;;19.19;83.51
1832;BME280;1680;48.106;11.708;2023-07-24T02:26:45;94887.56;;;19.19;84.21
1832;BME280;1680;48.106;11.708;2023-07-24T02:29:12;94891.56;;;19.35;83.38
1832;BME280;1680;48.106;11.708;2023-07-24T02:31:39;94895.88;;;19.31;84.07
1832;BME280;1680;48.106;11.708;2023-07-24T02:34:06;94898.53;;;19.31;83.88
1832;BME280;1680;48.106;11.708;2023-07-24T02:36:34;94888.72;;;19.45;83.99
1832;BME280;1680;48.106;11.708;2023-07-24T02:39:02;94880.34;;;19.51;84.26
1832;BME280;1680;48.106;11.708;2023-07-24T02:41:29;94872.31;;;19.56;83.29
1832;BME280;1680;48.106;11.708;2023-07-24T02:43:56;94883.00;;;19.38;84.44
1832;BME280;1680;48.106;11.708;2023-07-24T02:46:23;94909.50;;;19.43;83.97
1832;BME280;1680;48.106;11.708;2023-07-24T02:48:50;94925.06;;;19.36;83.02
1832;BME280;1680;48.106;11.708;2023-07-24T02:51:18;94971.25;;;19.71;82.37
1832;BME280;1680;48.106;11.708;2023-07-24T02:53:46;94875.59;;;19.35;83.20
1832;BME280;1680;48.106;11.708;2023-07-24T02:56:13;94909.34;;;19.52;83.89
1832;BME280;1680;48.106;11.708;2023-07-24T02:58:40;94922.38;;;19.67;83.06
1832;BME280;1680;48.106;11.708;2023-07-24T03:01:08;94912.81;;;19.66;82.90
1832;BME280;1680;48.106;11.708;2023-07-24T03:03:35;94937.34;;;19.63;83.49
1832;BME280;1680;48.106;11.708;2023-07-24T03:06:03;94932.41;;;19.70;83.22
1832;BME280;1680;48.106;11.708;2023-07-24T03:08:30;94919.56;;;19.46;84.64
1832;BME280;1680;48.106;11.708;2023-07-24T03:10:58;94886.81;;;19.32;84.20
1832;BME280;1680;48.106;11.708;2023-07-24T03:13:27;94998.69;;;19.85;83.11
1832;BME280;1680;48.106;11.708;2023-07-24T03:15:56;95119.63;;;19.98;82.60
1832;BME280;1680;48.106;11.708;2023-07-24T03:18:24;95138.47;;;19.83;83.13
1832;BME280;1680;48.106;11.708;2023-07-24T03:20:52;95142.34;;;19.90;89.82
1832;BME280;1680;48.106;11.708;2023-07-24T03:23:19;95142.91;;;19.87;95.37
1832;BME280;1680;48.106;11.708;2023-07-24T03:25:46;95099.06;;;19.66;100.00
1832;BME280;1680;48.106;11.708;2023-07-24T03:28:15;95066.13;;;19.62;100.00
1832;BME280;1680;48.106;11.708;2023-07-24T03:30:42;95076.44;;;19.51;100.00
1832;BME280;1680;48.106;11.708;2023-07-24T03:33:09;95045.38;;;19.28;100.00
1832;BME280;1680;48.106;11.708;2023-07-24T03:35:37;95034.59;;;19.38;100.00
1832;BME280;1680;48.106;11.708;2023-07-24T03:38:06;95032.00;;;19.33;100.00
1832;BME280;1680;48.106;11.708;2023-07-24T03:40:33;94977.09;;;19.05;100.00
1832;BME280;1680;48.106;11.708;2023-07-24T03:43:00;95005.84;;;19.40;100.00
1832;BME280;1680;48.106;11.708;2023-07-24T03:45:28;94988.31;;;19.39;100.00
1832;BME280;1680;48.106;11.708;2023-07-24T03:47:56;94970.09;;;19.46;100.00
1832;BME280;1680;48.106;11.708;2023-07-24T03:50:23;94925.25;;;19.39;100.00
1832;BME280;1680;48.106;11.708;2023-07-24T03:52:50;94884.59;;;19.39;100.00
1832;BME280;1680;48.106;11.708;2023-07-24T03:55:17;94886.25;;;19.35;100.00
1832;BME280;1680;48.106;11.708;2023-07-24T03:57:44;94917.59;;;19.38;100.00
1832;BME280;1680;48.106;11.708;2023-07-24T04:00:12;94881.44;;;19.37;100.00
1832;BME280;1680;48.106;11.708;2023-07-24T04:02:41;94880.94;;;19.35;100.00
1832;BME280;1680;48.106;11.708;2023-07-24T04:05:08;94896.69;;;19.31;100.00
1832;BME280;1680;48.106;11.708;2023-07-24T04:07:35;94894.28;;;19.30;100.00
1832;BME280;1680;48.106;11.708;2023-07-24T04:10:04;94917.13;;;19.17;100.00
1832;BME280;1680;48.106;11.708;2023-07-24T04:12:31;94921.81;;;19.39;100.00
1832;BME280;1680;48.106;11.708;2023-07-24T04:14:58;94883.53;;;19.03;100.00
1832;BME280;1680;48.106;11.708;2023-07-24T04:17:25;94913.47;;;19.45;100.00
1832;BME280;1680;48.106;11.708;2023-07-24T04:19:54;94879.53;;;19.24;100.00
1832;BME280;1680;48.106;11.708;2023-07-24T04:22:21;94893.38;;;19.52;100.00
1832;BME280;1680;48.106;11.708;2023-07-24T04:24:48;94870.47;;;19.25;100.00
1832;BME280;1680;48.106;11.708;2023-07-24T04:27:15;94915.81;;;19.47;100.00
1832;BME280;1680;48.106;11.708;2023-07-24T04:29:42;94888.28;;;19.06;100.00
1832;BME280;1680;48.106;11.708;2023-07-24T04:32:09;94915.16;;;19.23;100.00
1832;BME280;1680;48.106;11.708;2023-07-24T04:34:37;94907.09;;;19.28;100.00
1832;BME280;1680;48.106;11.708;2023-07-24T04:37:05;94905.19;;;19.47;100.00
1832;BME280;1680;48.106;11.708;2023-07-24T04:39:32;94933.53;;;19.38;100.00
1832;BME280;1680;48.106;11.708;2023-07-24T04:41:59;94935.53;;;19.46;100.00
1832;BME280;1680;48.106;11.708;2023-07-24T04:44:27;94938.16;;;19.32;100.00
1832;BME280;1680;48.106;11.708;2023-07-24T04:46:54;94916.31;;;19.17;100.00
1832;BME280;1680;48.106;11.708;2023-07-24T04:49:21;94929.16;;;19.28;100.00
1832;BME280;1680;48.106;11.708;2023-07-24T04:51:49;94905.47;;;18.95;100.00
1832;BME280;1680;48.106;11.708;2023-07-24T04:54:18;94932.84;;;19.14;100.00
1832;BME280;1680;48.106;11.708;2023-07-24T04:56:45;94892.59;;;19.02;100.00
1832;BME280;1680;48.106;11.708;2023-07-24T04:59:12;94912.06;;;19.16;100.00
1832;BME280;1680;48.106;11.708;2023-07-24T05:01:39;94928.66;;;19.26;100.00
1832;BME280;1680;48.106;11.708;2023-07-24T05:04:07;94902.94;;;19.22;100.00
1832;BME280;1680;48.106;11.708;2023-07-24T05:06:34;94934.50;;;19.42;100.00
1832;BME280;1680;48.106;11.708;2023-07-24T05:09:02;94934.94;;;19.49;100.00
1832;BME280;1680;48.106;11.708;2023-07-24T05:11:31;94949.75;;;19.54;100.00
1832;BME280;1680;48.106;11.708;2023-07-24T05:13:58;94947.78;;;19.60;100.00
1832;BME280;1680;48.106;11.708;2023-07-24T05:16:25;94950.66;;;19.63;100.00
1832;BME280;1680;48.106;11.708;2023-07-24T05:18:52;94942.41;;;19.78;100.00
1832;BME280;1680;48.106;11.708;2023-07-24T05:21:19;94939.94;;;19.68;100.00
1832;BME280;1680;48.106;11.708;2023-07-24T05:23:46;94940.50;;;19.79;100.00
1832;BME280;1680;48.106;11.708;2023-07-24T05:26:19;94921.78;;;19.70;100.00
1832;BME280;1680;48.106;11.708;2023-07-24T05:28:51;94915.88;;;19.73;100.00
1832;BME280;1680;48.106;11.708;2023-07-24T05:31:19;94924.53;;;19.65;100.00
1832;BME280;1680;48.106;11.708;2023-07-24T05:33:46;94914.91;;;19.69;100.00
1832;BME280;1680;48.106;11.708;2023-07-24T05:36:13;94911.34;;;19.74;100.00
1832;BME280;1680;48.106;11.708;2023-07-24T05:38:40;94905.22;;;19.73;100.00
1832;BME280;1680;48.106;11.708;2023-07-24T05:41:07;94896.84;;;19.80;100.00
1832;BME280;1680;48.106;11.708;2023-07-24T05:43:34;94898.94;;;19.83;100.00
1832;BME280;1680;48.106;11.708;2023-07-24T05:46:03;94891.94;;;19.87;100.00
1832;BME280;1680;48.106;11.708;2023-07-24T05:48:30;94902.34;;;20.02;100.00
1832;BME280;1680;48.106;11.708;2023-07-24T05:50:57;94897.22;;;20.19;100.00
1832;BME280;1680;48.106;11.708;2023-07-24T05:53:24;94894.53;;;20.32;100.00
1832;BME280;1680;48.106;11.708;2023-07-24T05:56:01;94888.69;;;20.57;100.00
1832;BME280;1680;48.106;11.708;2023-07-24T05:58:28;94889.72;;;20.69;100.00
1832;BME280;1680;48.106;11.708;2023-07-24T06:00:55;94874.03;;;20.68;100.00
1832;BME280;1680;48.106;11.708;2023-07-24T06:03:24;94794.03;;;20.24;100.00
1832;BME280;1680;48.106;11.708;2023-07-24T06:05:52;94871.44;;;20.90;100.00
1832;BME280;1680;48.106;11.708;2023-07-24T06:08:19;94872.03;;;21.09;100.00
1832;BME280;1680;48.106;11.708;2023-07-24T06:10:47;94874.78;;;21.39;100.00
1832;BME280;1680;48.106;11.708;2023-07-24T06:13:14;94852.72;;;21.55;100.00
1832;BME280;1680;48.106;11.708;2023-07-24T06:15:42;94846.09;;;21.75;99.61
1832;BME280;1680;48.106;11.708;2023-07-24T06:18:10;94833.13;;;21.90;99.81
1832;BME280;1680;48.106;11.708;2023-07-24T06:20:38;94834.09;;;21.94;97.49
1832;BME280;1680;48.106;11.708;2023-07-24T06:23:05;94823.53;;;21.89;99.68
1832;BME280;1680;48.106;11.708;2023-07-24T06:25:33;94825.25;;;21.85;100.00
1832;BME280;1680;48.106;11.708;2023-07-24T06:28:00;94817.34;;;21.80;100.00
1832;BME280;1680;48.106;11.708;2023-07-24T06:30:27;94827.63;;;21.87;98.87
1832;BME280;1680;48.106;11.708;2023-07-24T06:32:54;94821.00;;;21.84;98.11
1832;BME280;1680;48.106;11.708;2023-07-24T06:35:21;94819.78;;;21.90;99.25
1832;BME280;1680;48.106;11.708;2023-07-24T06:37:50;94817.16;;;22.07;97.38
1832;BME280;1680;48.106;11.708;2023-07-24T06:40:17;94812.16;;;22.31;94.90
1832;BME280;1680;48.106;11.708;2023-07-24T06:42:45;94798.38;;;22.46;92.89
1832;BME280;1680;48.106;11.708;2023-07-24T06:45:12;94789.09;;;22.77;91.97
1832;BME280;1680;48.106;11.708;2023-07-24T06:47:39;94790.81;;;23.16;89.42
1832;BME280;1680;48.106;11.708;2023-07-24T06:50:07;94809.22;;;23.26;89.12
1832;BME280;1680;48.106;11.708;2023-07-24T06:52:34;94804.63;;;23.35;86.06
1832;BME280;1680;48.106;11.708;2023-07-24T06:55:03;94826.00;;;23.52;84.36
1832;BME280;1680;48.106;11.708;2023-07-24T06:57:31;94813.53;;;23.64;83.31
1832;BME280;1680;48.106;11.708;2023-07-24T06:59:58;94821.19;;;23.82;82.04
1832;BME280;1680;48.106;11.708;2023-07-24T07:02:25;94803.50;;;23.90;81.51
1832;BME280;1680;48.106;11.708;2023-07-24T07:04:53;94812.25;;;24.07;78.05
1832;BME280;1680;48.106;11.708;2023-07-24T07:07:21;94816.81;;;24.07;77.50
1832;BME280;1680;48.106;11.708;2023-07-24T07:09:48;94822.25;;;23.90;76.20
1832;BME280;1680;48.106;11.708;2023-07-24T07:12:16;94825.84;;;24.02;74.89
1832;BME280;1680;48.106;11.708;2023-07-24T07:14:43;94831.91;;;24.40;73.08
1832;BME280;1680;48.106;11.708;2023-07-24T07:17:11;94835.22;;;24.66;73.73
1832;BME280;1680;48.106;11.708;2023-07-24T07:19:38;94850.44;;;25.03;73.92
1832;BME280;1680;48.106;11.708;2023-07-24T07:22:05;94841.69;;;25.47;70.34
1832;BME280;1680;48.106;11.708;2023-07-24T07:24:32;94837.59;;;25.29;69.36
1832;BME280;1680;48.106;11.708;2023-07-24T07:26:59;94865.84;;;25.47;67.40
1832;BME280;1680;48.106;11.708;2023-07-24T07:29:28;94894.34;;;25.39;68.82
1832;BME280;1680;48.106;11.708;2023-07-24T07:31:56;94901.72;;;25.30;67.97
1832;BME280;1680;48.106;11.708;2023-07-24T07:34:23;94914.78;;;25.11;68.23
1832;BME280;1680;48.106;11.708;2023-07-24T07:36:50;94893.75;;;24.93;66.61
1832;BME280;1680;48.106;11.708;2023-07-24T07:39:17;94925.09;;;24.80;69.78
1832;BME280;1680;48.106;11.708;2023-07-24T07:41:45;94948.44;;;24.80;68.89
1832;BME280;1680;48.106;11.708;2023-07-24T07:44:12;94986.41;;;24.61;67.20
1832;BME280;1680;48.106;11.708;2023-07-24T07:46:40;95005.41;;;24.48;66.14
1832;BME280;1680;48.106;11.708;2023-07-24T07:49:08;94995.94;;;24.42;67.66
1832;BME280;1680;48.106;11.708;2023-07-24T07:51:35;95007.44;;;24.43;67.76
1832;BME280;1680;48.106;11.708;2023-07-24T07:54:02;95005.56;;;24.35;68.92
1832;BME280;1680;48.106;11.708;2023-07-24T07:56:30;94993.47;;;24.20;70.00
1832;BME280;1680;48.106;11.708;2023-07-24T07:58:57;95018.22;;;24.26;69.04
1832;BME280;1680;48.106;11.708;2023-07-24T08:01:25;95016.50;;;24.13;69.74
1832;BME280;1680;48.106;11.708;2023-07-24T08:03:54;95027.56;;;24.11;69.41
1832;BME280;1680;48.106;11.708;2023-07-24T08:06:21;94995.44;;;23.77;69.92
1832;BME280;1680;48.106;11.708;2023-07-24T08:08:48;95013.06;;;23.61;72.38
1832;BME280;1680;48.106;11.708;2023-07-24T08:11:15;95019.09;;;23.58;72.80
1832;BME280;1680;48.106;11.708;2023-07-24T08:13:43;95014.03;;;23.65;73.58
1832;BME280;1680;48.106;11.708;2023-07-24T08:16:13;95011.03;;;23.58;74.91
1832;BME280;1680;48.106;11.708;2023-07-24T08:18:44;94987.09;;;23.45;75.18
1832;BME280;1680;48.106;11.708;2023-07-24T08:21:12;95009.47;;;23.57;75.75
1832;BME280;1680;48.106;11.708;2023-07-24T08:23:40;94976.25;;;23.50;74.41
1832;BME280;1680;48.106;11.708;2023-07-24T08:26:07;94979.69;;;23.51;75.87
1832;BME280;1680;48.106;11.708;2023-07-24T08:28:34;94986.47;;;23.82;76.22
1832;BME280;1680;48.106;11.708;2023-07-24T08:31:01;94984.91;;;23.55;73.45
1832;BME280;1680;48.106;11.708;2023-07-24T08:33:29;94990.09;;;23.44;74.91
1832;BME280;1680;48.106;11.708;2023-07-24T08:36:00;94981.13;;;23.40;76.63
1832;BME280;1680;48.106;11.708;2023-07-24T08:38:28;94980.31;;;23.31;77.27
1832;BME280;1680;48.106;11.708;2023-07-24T08:41:03;94988.78;;;23.16;78.41
1832;BME280;1680;48.106;11.708;2023-07-24T08:43:31;94994.81;;;23.13;76.94
1832;BME280;1680;48.106;11.708;2023-07-24T08:46:00;94974.94;;;23.05;77.84
1832;BME280;1680;48.106;11.708;2023-07-24T08:48:30;94954.81;;;23.08;78.28
1832;BME280;1680;48.106;11.708;2023-07-24T08:50:59;94939.38;;;23.22;78.02
1832;BME280;1680;48.106;11.708;2023-07-24T08:53:29;94919.06;;;23.38;78.42
1832;BME280;1680;48.106;11.708;2023-07-24T08:55:57;94934.81;;;23.39;75.95
1832;BME280;1680;48.106;11.708;2023-07-24T08:58:27;94915.59;;;23.46;74.29
1832;BME280;1680;48.106;11.708;2023-07-24T09:00:54;94910.56;;;23.52;75.35
1832;BME280;1680;48.106;11.708;2023-07-24T09:03:22;94907.72;;;23.57;75.72
1832;BME280;1680;48.106;11.708;2023-07-24T09:05:49;94896.53;;;23.64;76.46
1832;BME280;1680;48.106;11.708;2023-07-24T09:08:35;94903.13;;;23.66;77.09
1832;BME280;1680;48.106;11.708;2023-07-24T09:11:04;94911.13;;;23.75;74.02
1832;BME280;1680;48.106;11.708;2023-07-24T09:13:34;94900.63;;;23.53;76.36
1832;BME280;1680;48.106;11.708;2023-07-24T09:16:02;94893.72;;;23.52;76.93
1832;BME280;1680;48.106;11.708;2023-07-24T09:18:38;94908.84;;;23.40;78.47
1832;BME280;1680;48.106;11.708;2023-07-24T09:21:06;94910.72;;;23.31;79.05
1832;BME280;1680;48.106;11.708;2023-07-24T09:23:35;94902.25;;;23.29;80.11
1832;BME280;1680;48.106;11.708;2023-07-24T09:26:05;94904.94;;;23.29;80.00
1832;BME280;1680;48.106;11.708;2023-07-24T09:28:33;94883.53;;;23.29;78.46
1832;BME280;1680;48.106;11.708;2023-07-24T09:31:00;94886.63;;;23.39;78.03
1832;BME280;1680;48.106;11.708;2023-07-24T09:33:35;94870.25;;;23.57;78.24
1832;BME280;1680;48.106;11.708;2023-07-24T09:36:03;94870.06;;;24.08;75.50
1832;BME280;1680;48.106;11.708;2023-07-24T09:38:30;94867.63;;;24.32;74.35
1832;BME280;1680;48.106;11.708;2023-07-24T09:41:00;94859.19;;;24.71;73.30
1832;BME280;1680;48.106;11.708;2023-07-24T09:43:29;94855.69;;;25.20;69.80
1832;BME280;1680;48.106;11.708;2023-07-24T09:45:57;94846.19;;;25.55;69.99
1832;BME280;1680;48.106;11.708;2023-07-24T09:48:25;94842.13;;;25.81;68.44
1832;BME280;1680;48.106;11.708;2023-07-24T09:50:54;94836.78;;;26.05;65.07
1832;BME280;1680;48.106;11.708;2023-07-24T09:53:24;94821.09;;;26.31;64.42
1832;BME280;1680;48.106;11.708;2023-07-24T09:55:57;94825.91;;;26.37;65.17
1832;BME280;1680;48.106;11.708;2023-07-24T09:58:25;94819.34;;;26.86;61.32
1832;BME280;1680;48.106;11.708;2023-07-24T10:00:53;94811.56;;;27.08;60.66
1832;BME280;1680;48.106;11.708;2023-07-24T10:03:21;94784.06;;;27.30;59.44
1832;BME280;1680;48.106;11.708;2023-07-24T10:05:49;94795.44;;;27.66;58.30
1832;BME280;1680;48.106;11.708;2023-07-24T10:08:18;94801.84;;;27.62;58.14
1832;BME280;1680;48.106;11.708;2023-07-24T10:10:45;94805.22;;;27.44;57.10
1832;BME280;1680;48.106;11.708;2023-07-24T10:13:17;94790.41;;;27.65;54.24
1832;BME280;1680;48.106;11.708;2023-07-24T10:15:46;94798.75;;;27.91;53.87
1832;BME280;1680;48.106;11.708;2023-07-24T10:18:16;94796.22;;;28.13;54.84
1832;BME280;1680;48.106;11.708;2023-07-24T10:20:44;94790.31;;;28.23;52.57
1832;BME280;1680;48.106;11.708;2023-07-24T10:23:16;94781.91;;;27.94;48.79
1832;BME280;1680;48.106;11.708;2023-07-24T10:25:45;94790.66;;;28.22;47.47
1832;BME280;1680;48.106;11.708;2023-07-24T10:28:13;94792.06;;;28.47;47.49
1832;BME280;1680;48.106;11.708;2023-07-24T10:30:42;94790.81;;;28.44;43.91
1832;BME280;1680;48.106;11.708;2023-07-24T10:33:13;94785.00;;;28.42;45.42
1832;BME280;1680;48.106;11.708;2023-07-24T10:35:42;94796.97;;;28.60;47.20
1832;BME280;1680;48.106;11.708;2023-07-24T10:38:12;94788.22;;;28.82;45.72
1832;BME280;1680;48.106;11.708;2023-07-24T10:40:39;94780.53;;;29.03;43.66
1832;BME280;1680;48.106;11.708;2023-07-24T10:43:08;94792.03;;;29.38;41.44
1832;BME280;1680;48.106;11.708;2023-07-24T10:45:42;94789.50;;;29.26;44.12
1832;BME280;1680;48.106;11.708;2023-07-24T10:48:12;94800.47;;;29.14;42.76
1832;BME280;1680;48.106;11.708;2023-07-24T10:50:40;94784.78;;;28.85;44.13
1832;BME280;1680;48.106;11.708;2023-07-24T10:53:08;94795.06;;;28.61;45.00
1832;BME280;1680;48.106;11.708;2023-07-24T10:55:36;94781.72;;;28.33;44.95
1832;BME280;1680;48.106;11.708;2023-07-24T10:58:03;94779.34;;;28.16;46.14
1832;BME280;1680;48.106;11.708;2023-07-24T11:00:30;94768.41;;;28.09;45.18
1832;BME280;1680;48.106;11.708;2023-07-24T11:02:57;94761.09;;;28.25;45.64
1832;BME280;1680;48.106;11.708;2023-07-24T11:05:26;94747.78;;;28.32;46.06
1832;BME280;1680;48.106;11.708;2023-07-24T11:07:54;94749.59;;;28.62;46.65
1832;BME280;1680;48.106;11.708;2023-07-24T11:10:22;94744.56;;;28.80;45.41
1832;BME280;1680;48.106;11.708;2023-07-24T11:12:50;94737.16;;;28.58;44.77
1832;BME280;1680;48.106;11.708;2023-07-24T11:15:24;94735.06;;;28.86;45.54
1832;BME280;1680;48.106;11.708;2023-07-24T11:17:53;94736.63;;;29.06;45.22
1832;BME280;1680;48.106;11.708;2023-07-24T11:20:20;94736.19;;;29.04;44.36
1832;BME280;1680;48.106;11.708;2023-07-24T11:22:48;94723.97;;;29.10;45.12
1832;BME280;1680;48.106;11.708;2023-07-24T11:25:16;94722.84;;;29.11;44.19
1832;BME280;1680;48.106;11.708;2023-07-24T11:27:43;94718.53;;;29.29;44.40
1832;BME280;1680;48.106;11.708;2023-07-24T11:30:13;94706.28;;;29.35;42.42
1832;BME280;1680;48.106;11.708;2023-07-24T11:32:46;94692.28;;;29.07;43.41
1832;BME280;1680;48.106;11.708;2023-07-24T11:35:13;94700.59;;;28.98;42.84
1832;BME280;1680;48.106;11.708;2023-07-24T11:37:41;94698.53;;;28.73;44.47
1832;BME280;1680;48.106;11.708;2023-07-24T11:40:10;94691.34;;;28.80;45.20
1832;BME280;1680;48.106;11.708;2023-07-24T11:42:42;94670.38;;;28.74;46.84
1832;BME280;1680;48.106;11.708;2023-07-24T11:45:10;94683.75;;;28.86;45.14
1832;BME280;1680;48.106;11.708;2023-07-24T11:47:44;94679.16;;;29.28;45.49
1832;BME280;1680;48.106;11.708;2023-07-24T11:50:12;94690.28;;;29.04;47.07
1832;BME280;1680;48.106;11.708;2023-07-24T11:52:41;94687.28;;;29.09;44.83
1832;BME280;1680;48.106;11.708;2023-07-24T11:55:11;94668.94;;;29.18;45.49
1832;BME280;1680;48.106;11.708;2023-07-24T11:57:39;94669.34;;;29.20;44.88
1832;BME280;1680;48.106;11.708;2023-07-24T12:00:17;94665.09;;;29.19;44.39
1832;BME280;1680;48.106;11.708;2023-07-24T12:02:45;94665.91;;;28.81;44.50
1832;BME280;1680;48.106;11.708;2023-07-24T12:05:13;94671.81;;;28.87;44.75
1832;BME280;1680;48.106;11.708;2023-07-24T12:07:42;94668.69;;;28.66;45.65
1832;BME280;1680;48.106;11.708;2023-07-24T12:10:13;94693.84;;;28.51;46.26
1832;BME280;1680;48.106;11.708;2023-07-24T12:12:43;94679.63;;;28.35;47.45
1832;BME280;1680;48.106;11.708;2023-07-24T12:15:12;94674.22;;;28.35;45.76
1832;BME280;1680;48.106;11.708;2023-07-24T12:17:41;94672.53;;;28.65;45.28
1832;BME280;1680;48.106;11.708;2023-07-24T12:20:09;94694.72;;;28.93;45.32
1832;BME280;1680;48.106;11.708;2023-07-24T12:22:37;94679.09;;;28.83;46.16
1832;BME280;1680;48.106;11.708;2023-07-24T12:25:06;94708.25;;;28.77;44.64
1832;BME280;1680;48.106;11.708;2023-07-24T12:27:34;94756.13;;;28.27;43.54
1832;BME280;1680;48.106;11.708;2023-07-24T12:30:03;94771.72;;;27.87;44.34
1832;BME280;1680;48.106;11.708;2023-07-24T12:32:31;94795.66;;;27.73;45.33
1832;BME280;1680;48.106;11.708;2023-07-24T12:34:58;94815.84;;;27.25;46.36
1832;BME280;1680;48.106;11.708;2023-07-24T12:37:25;94808.31;;;26.91;49.82
1832;BME280;1680;48.106;11.708;2023-07-24T12:39:52;94800.78;;;26.69;57.12
1832;BME280;1680;48.106;11.708;2023-07-24T12:42:26;94807.38;;;25.76;68.63
1832;BME280;1680;48.106;11.708;2023-07-24T12:44:58;94822.03;;;24.81;74.05
1832;BME280;1680;48.106;11.708;2023-07-24T12:47:28;94828.56;;;24.52;76.74
1832;BME280;1680;48.106;11.708;2023-07-24T12:49:55;94832.56;;;24.37;79.65
1832;BME280;1680;48.106;11.708;2023-07-24T12:52:23;94838.25;;;24.07;81.01
1832;BME280;1680;48.106;11.708;2023-07-24T12:54:50;94842.97;;;24.10;79.46
1832;BME280;1680;48.106;11.708;2023-07-24T12:57:17;94857.03;;;24.36;78.46
1832;BME280;1680;48.106;11.708;2023-07-24T12:59:45;94818.34;;;24.16;75.52
1832;BME280;1680;48.106;11.708;2023-07-24T13:02:13;94849.56;;;24.50;76.83
1832;BME280;1680;48.106;11.708;2023-07-24T13:04:42;94843.75;;;24.39;75.23
1832;BME280;1680;48.106;11.708;2023-07-24T13:07:09;94856.22;;;24.35;76.03
1832;BME280;1680;48.106;11.708;2023-07-24T13:09:37;94860.75;;;24.14;76.73
1832;BME280;1680;48.106;11.708;2023-07-24T13:12:05;94864.69;;;24.17;81.00